Time;durP1;ratioP1;P1;durP2;ratioP2;P2;SDS_P1;SDS_P2;PMS_P1;PMS_P2;Temp;Humidity;BMP_temperature;BMP_pressure;BME280_temperature;BME280_humidity;BME280_pressure;Samples;Min_cycle;Max_cycle;Signal;HPM_P1;HPM_P2
2020/12/10 00:00:37;;;;;;;16.00;6.72;;;;;;;5.07;81.01;98384.52;1744583;80;21161;-86
2020/12/10 00:03:05;;;;;;;10.23;4.30;;;;;;;5.06;81.38;98374.25;1747459;81;21197;-87
2020/12/10 00:05:33;;;;;;;11.60;5.12;;;;;;;5.06;80.94;98367.81;1748780;81;21257;-83
2020/12/10 00:08:01;;;;;;;15.45;6.03;;;;;;;5.05;81.20;98366.09;1722364;82;21284;-83
2020/12/10 00:10:28;;;;;;;15.90;7.72;;;;;;;5.04;81.64;98358.81;1750329;80;21308;-82
2020/12/10 00:12:58;;;;;;;22.65;10.98;;;;;;;5.01;81.81;98354.98;1749753;81;21291;-82
2020/12/10 00:15:26;;;;;;;22.87;9.30;;;;;;;4.98;81.84;98368.77;1753025;81;21307;-82
2020/12/10 00:17:53;;;;;;;15.28;6.80;;;;;;;4.97;81.99;98385.11;1751103;80;21316;-81
2020/12/10 00:20:21;;;;;;;14.63;6.10;;;;;;;4.89;82.32;98377.89;1747476;81;21261;-83
2020/12/10 00:22:48;;;;;;;12.35;5.45;;;;;;;4.87;82.14;98350.47;1712954;83;21168;-84
2020/12/10 00:25:16;;;;;;;12.30;6.45;;;;;;;4.91;82.23;98356.83;1749650;81;21256;-83
2020/12/10 00:27:43;;;;;;;13.65;6.30;;;;;;;4.90;82.46;98346.13;1744550;81;21279;-83
2020/12/10 00:30:11;;;;;;;17.87;6.80;;;;;;;4.88;82.42;98353.03;1753126;81;21244;-82
2020/12/10 00:32:41;;;;;;;15.08;6.08;;;;;;;4.87;82.54;98360.33;1760259;80;21173;-82
2020/12/10 00:35:09;;;;;;;12.28;5.85;;;;;;;4.90;82.12;98351.72;1758028;81;21150;-83
2020/12/10 00:37:37;;;;;;;12.07;6.35;;;;;;;4.89;82.17;98343.12;1726136;81;21272;-81
2020/12/10 00:40:07;;;;;;;15.83;6.95;;;;;;;4.88;82.14;98342.73;1770284;80;21272;-82
2020/12/10 00:42:36;;;;;;;12.75;6.37;;;;;;;4.85;82.40;98329.88;1726445;81;21748;-82
2020/12/10 00:45:04;;;;;;;15.40;7.37;;;;;;;4.82;82.51;98336.38;1755761;81;21398;-82
2020/12/10 00:47:32;;;;;;;13.30;6.35;;;;;;;4.77;81.96;98336.86;1720681;81;21267;-83
2020/12/10 00:50:02;;;;;;;14.87;7.30;;;;;;;4.71;82.10;98344.23;1752367;81;21154;-81
2020/12/10 00:52:31;;;;;;;11.93;5.50;;;;;;;4.67;82.46;98345.59;1724058;83;21283;-83
2020/12/10 00:55:01;;;;;;;14.50;5.92;;;;;;;4.63;82.58;98356.80;1759326;81;21281;-83
2020/12/10 00:57:30;;;;;;;19.17;6.97;;;;;;;4.60;82.86;98342.70;1727677;82;21315;-82
2020/12/10 00:59:58;;;;;;;17.40;6.55;;;;;;;4.57;83.03;98335.84;1760527;79;21326;-83
2020/12/10 01:02:26;;;;;;;15.88;6.12;;;;;;;4.53;83.03;98332.45;1723629;82;21319;-82
2020/12/10 01:04:53;;;;;;;13.20;6.05;;;;;;;4.55;83.02;98332.00;1760151;81;21326;-83
2020/12/10 01:07:21;;;;;;;14.15;6.00;;;;;;;4.47;83.60;98325.26;1725189;81;21264;-83
2020/12/10 01:09:48;;;;;;;13.68;6.37;;;;;;;4.42;84.05;98343.75;1762392;81;21295;-84
2020/12/10 01:12:15;;;;;;;13.03;6.53;;;;;;;4.43;84.22;98349.33;1725184;82;21283;-81
2020/12/10 01:14:43;;;;;;;15.70;6.67;;;;;;;4.51;83.64;98341.08;1750309;80;21267;-82
2020/12/10 01:17:10;;;;;;;12.88;6.05;;;;;;;4.52;83.73;98354.37;1750706;77;21230;-83
2020/12/10 01:19:38;;;;;;;14.60;6.08;;;;;;;4.48;84.25;98363.02;1745700;80;21100;-81
2020/12/10 01:22:05;;;;;;;12.30;6.28;;;;;;;4.46;84.44;98361.73;1748383;81;21295;-82
2020/12/10 01:24:32;;;;;;;13.40;6.17;;;;;;;4.48;84.30;98360.44;1748191;80;21283;-83
2020/12/10 01:27:00;;;;;;;11.65;5.90;;;;;;;4.48;84.42;98349.70;1757553;78;21297;-84
2020/12/10 01:29:27;;;;;;;13.40;6.10;;;;;;;4.46;84.35;98334.71;1753881;80;21224;-82
2020/12/10 01:31:55;;;;;;;15.43;6.30;;;;;;;4.48;84.38;98334.25;1751282;80;21263;-83
2020/12/10 01:34:22;;;;;;;12.75;6.70;;;;;;;4.52;83.35;98336.36;1747175;81;21290;-82
2020/12/10 01:36:50;;;;;;;16.15;6.30;;;;;;;4.43;84.59;98324.44;1743305;80;21227;-83
2020/12/10 01:39:17;;;;;;;14.68;5.40;;;;;;;4.43;84.16;98306.86;1750785;81;21263;-83
2020/12/10 01:41:44;;;;;;;12.58;5.70;;;;;;;4.41;84.32;98306.88;1749416;80;21124;-82
2020/12/10 01:44:14;;;;;;;13.48;5.37;;;;;;;4.42;84.13;98309.01;1753088;80;21220;-83
2020/12/10 01:46:42;;;;;;;12.55;5.60;;;;;;;4.43;84.07;98310.73;1744098;79;21231;-83
2020/12/10 01:49:10;;;;;;;12.80;5.15;;;;;;;4.42;84.57;98310.30;1749749;80;21247;-83
2020/12/10 01:51:38;;;;;;;9.83;5.10;;;;;;;4.47;83.72;98315.80;1753277;80;21215;-82
2020/12/10 01:54:07;;;;;;;12.05;5.25;;;;;;;4.49;84.09;98323.07;1747941;81;21583;-84
2020/12/10 01:56:34;;;;;;;15.80;5.78;;;;;;;4.49;84.00;98315.79;1732731;81;21283;-83
2020/12/10 01:59:04;;;;;;;12.68;5.08;;;;;;;4.51;83.99;98300.73;1761175;81;21303;-82
2020/12/10 02:01:33;;;;;;;13.75;5.53;;;;;;;4.51;84.08;98296.88;1731656;82;21286;-82
2020/12/10 02:04:02;;;;;;;13.05;6.20;;;;;;;4.54;84.09;98302.00;1761834;81;21260;-83
2020/12/10 02:06:29;;;;;;;12.60;5.25;;;;;;;4.57;83.95;98298.07;1736418;82;21264;-82
2020/12/10 02:08:57;;;;;;;12.30;5.35;;;;;;;4.61;83.84;98294.19;1760546;81;21261;-83
2020/12/10 02:11:24;;;;;;;11.22;5.67;;;;;;;4.62;83.75;98299.31;1730901;82;21296;-82
2020/12/10 02:13:53;;;;;;;10.90;5.78;;;;;;;4.63;83.75;98297.59;1755126;81;21295;-82
2020/12/10 02:16:21;;;;;;;11.30;5.58;;;;;;;4.64;83.66;98282.57;1755591;81;21267;-83
2020/12/10 02:18:54;;;;;;;11.43;5.37;;;;;;;4.65;83.47;98281.68;1755060;80;21291;-84
2020/12/10 02:21:22;;;;;;;19.25;7.87;;;;;;;4.67;82.91;98284.64;1765315;80;21534;-83
2020/12/10 02:23:56;;;;;;;12.07;6.22;;;;;;;4.64;83.00;98289.00;1729240;82;21299;-83
2020/12/10 02:26:25;;;;;;;11.45;6.55;;;;;;;4.60;83.58;98282.20;1753874;81;21353;-82
2020/12/10 02:29:02;;;;;;;11.12;4.87;;;;;;;4.57;83.49;98269.75;1753159;80;21287;-81
2020/12/10 02:31:32;;;;;;;9.45;4.72;;;;;;;4.57;83.19;98281.78;1765278;81;21267;-82
2020/12/10 02:34:04;;;;;;;13.05;5.58;;;;;;;4.53;83.24;98277.11;1731792;82;21273;-83
2020/12/10 02:36:33;;;;;;;11.45;5.08;;;;;;;4.49;83.71;98278.03;1757442;81;21300;-83
2020/12/10 02:39:01;;;;;;;11.12;5.60;;;;;;;4.47;83.64;98288.78;1752879;80;21315;-83
2020/12/10 02:41:29;;;;;;;10.50;5.28;;;;;;;4.44;83.92;98289.28;1735510;81;21304;-83
2020/12/10 02:43:57;;;;;;;10.88;4.85;;;;;;;4.46;83.56;98289.66;1762185;81;21287;-83
2020/12/10 02:46:24;;;;;;;10.55;4.65;;;;;;;4.39;84.04;98277.30;1729328;82;21312;-83
2020/12/10 02:48:52;;;;;;;8.75;4.62;;;;;;;4.40;83.89;98279.45;1703513;84;21278;-82
2020/12/10 02:51:19;;;;;;;10.18;4.55;;;;;;;4.39;84.13;98280.31;1764520;80;21209;-82
2020/12/10 02:53:47;;;;;;;10.82;4.90;;;;;;;4.38;84.16;98279.47;1722955;81;21288;-83
2020/12/10 02:56:16;;;;;;;11.63;5.58;;;;;;;4.42;83.92;98287.13;1747993;81;21174;-82
2020/12/10 02:58:44;;;;;;;12.30;6.10;;;;;;;4.37;84.33;98282.05;1749622;80;21176;-87
2020/12/10 03:01:11;;;;;;;12.33;6.12;;;;;;;4.35;84.12;98278.66;1753755;80;21291;-82
2020/12/10 03:03:39;;;;;;;14.23;5.60;;;;;;;4.34;84.23;98267.52;1752996;81;21267;-83
2020/12/10 03:06:08;;;;;;;12.73;5.67;;;;;;;4.32;83.91;98254.27;1717936;83;21509;-83
2020/12/10 03:08:36;;;;;;;13.25;5.85;;;;;;;4.24;84.64;98250.91;1744163;81;21289;-83
2020/12/10 03:11:04;;;;;;;12.82;5.65;;;;;;;4.23;84.13;98255.66;1755525;80;21304;-84
2020/12/10 03:13:32;;;;;;;13.83;5.30;;;;;;;4.22;84.35;98240.67;1754568;81;21296;-83
2020/12/10 03:15:59;;;;;;;10.70;4.70;;;;;;;4.23;84.09;98237.20;1752923;81;21295;-83
2020/12/10 03:18:27;;;;;;;11.03;5.00;;;;;;;4.25;83.26;98241.89;1717983;81;21267;-82
2020/12/10 03:20:54;;;;;;;11.73;4.92;;;;;;;4.24;83.15;98236.77;1746081;80;21248;-83
2020/12/10 03:23:22;;;;;;;9.68;4.50;;;;;;;4.27;83.16;98243.17;1751013;81;21237;-81
2020/12/10 03:25:50;;;;;;;11.20;5.00;;;;;;;4.27;83.38;98246.58;1748149;81;21245;-81
2020/12/10 03:28:17;;;;;;;11.53;5.45;;;;;;;4.27;83.89;98251.73;1717033;81;21295;-82
2020/12/10 03:30:45;;;;;;;13.48;5.70;;;;;;;4.29;83.87;98247.41;1753322;80;21300;-82
2020/12/10 03:33:12;;;;;;;12.65;5.53;;;;;;;4.30;83.98;98243.14;1750619;81;21335;-82
2020/12/10 03:35:39;;;;;;;12.68;5.53;;;;;;;4.30;84.04;98234.98;1716096;81;21307;-82
2020/12/10 03:38:06;;;;;;;16.70;6.53;;;;;;;4.27;84.34;98241.88;1721112;81;21296;-83
2020/12/10 03:40:34;;;;;;;11.63;5.12;;;;;;;4.28;83.90;98235.44;1713330;82;21159;-83
2020/12/10 03:43:01;;;;;;;11.60;4.80;;;;;;;4.25;84.21;98228.19;1744618;80;21272;-83
2020/12/10 03:45:29;;;;;;;12.23;5.80;;;;;;;4.24;84.15;98231.62;1713627;83;21311;-83
2020/12/10 03:47:57;;;;;;;17.12;7.83;;;;;;;4.21;84.26;98220.94;1752594;81;21359;-82
2020/12/10 03:50:24;;;;;;;15.68;7.00;;;;;;;4.19;84.42;98227.39;1755853;81;21296;-83
2020/12/10 03:52:51;;;;;;;13.53;6.83;;;;;;;4.18;84.04;98234.70;1752428;81;21291;-82
2020/12/10 03:55:19;;;;;;;12.88;6.10;;;;;;;4.14;84.58;98243.78;1754096;80;21265;-83
2020/12/10 03:57:46;;;;;;;13.90;6.62;;;;;;;4.13;83.72;98232.61;1718258;80;21306;-80
2020/12/10 04:00:13;;;;;;;12.30;6.65;;;;;;;4.07;85.00;98221.12;1686726;84;21611;-81
2020/12/10 04:02:41;;;;;;;14.73;7.25;;;;;;;4.06;84.38;98220.72;1701317;84;21195;-82
2020/12/10 04:05:08;;;;;;;11.65;5.87;;;;;;;4.02;85.13;98225.49;1697881;83;21305;-82
2020/12/10 04:07:36;;;;;;;11.68;5.22;;;;;;;3.99;84.49;98237.09;1715916;83;21255;-82
2020/12/10 04:10:04;;;;;;;12.82;5.97;;;;;;;3.96;84.56;98235.42;1739574;81;21307;-81
2020/12/10 04:12:32;;;;;;;13.87;5.97;;;;;;;3.94;84.80;98233.74;1716671;80;21214;-83
2020/12/10 04:14:59;;;;;;;17.25;6.45;;;;;;;3.92;84.82;98238.02;1686415;84;21293;-82
2020/12/10 04:17:26;;;;;;;13.65;6.08;;;;;;;3.94;84.37;98236.31;1698775;83;21262;-83
2020/12/10 04:19:54;;;;;;;13.13;5.70;;;;;;;3.97;84.55;98243.98;1690353;84;21227;-82
2020/12/10 04:22:21;;;;;;;12.90;5.50;;;;;;;3.98;84.48;98240.55;1718881;82;21285;-82
2020/12/10 04:24:49;;;;;;;11.95;5.60;;;;;;;4.00;84.75;98228.52;1744141;81;21260;-83
2020/12/10 04:27:16;;;;;;;12.20;5.92;;;;;;;4.01;85.20;98220.36;1720542;83;21258;-82
2020/12/10 04:29:43;;;;;;;12.25;5.90;;;;;;;4.06;84.98;98235.28;1736070;82;21268;-82
2020/12/10 04:32:11;;;;;;;13.22;6.28;;;;;;;4.10;84.86;98248.52;1746719;81;21264;-82
2020/12/10 04:34:38;;;;;;;15.43;7.03;;;;;;;4.14;84.92;98260.50;1735530;82;21304;-81
2020/12/10 04:37:06;;;;;;;13.70;6.92;;;;;;;4.18;84.96;98258.30;1717509;82;21277;-82
2020/12/10 04:39:35;;;;;;;15.70;7.42;;;;;;;4.17;85.24;98238.58;1741697;82;21332;-82
2020/12/10 04:42:08;;;;;;;16.05;8.08;;;;;;;4.15;85.09;98235.17;1731106;82;21264;-82
2020/12/10 04:44:31;;;;;;;18.30;7.85;;;;;;;4.14;84.96;98247.20;1747783;82;21292;-82
2020/12/10 04:47:01;;;;;;;18.70;8.98;;;;;;;4.17;84.86;98256.59;1742721;81;21308;-82
2020/12/10 04:49:30;;;;;;;26.42;11.60;;;;;;;4.14;84.94;98250.21;1741004;82;21307;-82
2020/12/10 04:51:58;;;;;;;20.15;9.28;;;;;;;4.18;84.66;98258.30;1739999;82;21311;-82
2020/12/10 04:54:26;;;;;;;21.93;9.65;;;;;;;4.13;84.80;98257.05;1740152;80;21323;-83
2020/12/10 04:56:54;;;;;;;17.30;8.08;;;;;;;4.07;85.20;98244.72;1756540;81;21157;-82
2020/12/10 04:59:21;;;;;;;14.80;6.90;;;;;;;4.04;84.83;98224.16;1718545;83;21261;-83
2020/12/10 05:01:49;;;;;;;17.42;8.73;;;;;;;3.99;84.99;98219.93;1752968;80;21284;-83
2020/12/10 05:04:17;;;;;;;21.68;9.35;;;;;;;3.99;84.14;98217.80;1721210;83;21288;-83
2020/12/10 05:06:50;;;;;;;24.12;10.23;;;;;;;3.95;84.25;98218.72;1692247;84;21301;-83
2020/12/10 05:09:18;;;;;;;20.97;10.10;;;;;;;3.89;85.25;98234.22;1742405;81;21134;-83
2020/12/10 05:11:45;;;;;;;17.60;8.33;;;;;;;3.84;84.96;98238.14;1739085;80;21197;-83
2020/12/10 05:14:13;;;;;;;18.92;8.13;;;;;;;3.84;85.22;98248.84;1757185;80;21312;-82
2020/12/10 05:16:40;;;;;;;20.50;7.55;;;;;;;3.78;86.09;98255.77;1716961;81;21304;-82
2020/12/10 05:19:20;;;;;;;15.83;7.00;;;;;;;3.76;86.19;98244.66;1761006;80;21280;-83
2020/12/10 05:22:05;;;;;;;14.85;7.28;;;;;;;3.82;84.67;98248.00;1753919;81;21260;-83
2020/12/10 05:24:34;;;;;;;17.07;6.97;;;;;;;3.80;85.16;98259.62;1717285;83;21310;-82
2020/12/10 05:27:23;;;;;;;18.02;8.23;;;;;;;3.85;85.27;98273.25;1689727;84;21401;-84
2020/12/10 05:29:53;;;;;;;17.70;8.18;;;;;;;3.88;86.10;98267.22;1721196;83;21275;-83
2020/12/10 05:32:38;;;;;;;17.23;8.10;;;;;;;3.90;86.05;98253.49;1749684;81;21410;-82
2020/12/10 05:35:16;;;;;;;12.98;6.03;;;;;;;3.93;86.31;98257.30;1748347;81;21180;-80
2020/12/10 05:37:55;;;;;;;15.58;5.90;;;;;;;4.02;86.31;98255.48;1804585;79;23183;-79
2020/12/10 05:40:22;;;;;;;16.27;7.53;;;;;;;4.02;85.91;98256.77;1769646;80;22080;-81
2020/12/10 05:42:52;;;;;;;22.58;9.45;;;;;;;4.03;85.70;98254.63;1767027;80;21642;-80
2020/12/10 05:45:22;;;;;;;22.58;9.80;;;;;;;4.02;85.81;98258.93;1770744;80;21153;-81
2020/12/10 05:47:59;;;;;;;18.90;9.45;;;;;;;4.03;85.64;98269.62;1732622;82;21173;-80
2020/12/10 05:50:30;;;;;;;26.45;9.45;;;;;;;4.03;85.46;98243.05;1713958;83;21202;-81
2020/12/10 05:53:09;;;;;;;18.95;8.33;;;;;;;4.00;85.54;98256.81;1715484;83;21197;-82
2020/12/10 05:55:44;;;;;;;14.98;7.78;;;;;;;3.96;85.70;98250.00;1724753;82;21693;-81
2020/12/10 05:58:12;;;;;;;20.77;9.58;;;;;;;3.91;86.01;98245.34;1725535;83;21169;-81
2020/12/10 06:00:40;;;;;;;26.27;11.20;;;;;;;3.88;85.96;98246.64;1726358;82;21188;-82
2020/12/10 06:03:09;;;;;;;27.13;13.62;;;;;;;3.80;86.44;98245.48;1724898;83;21208;-82
2020/12/10 06:05:38;;;;;;;20.40;10.38;;;;;;;3.80;86.20;98263.47;1724434;82;21189;-81
2020/12/10 06:08:12;;;;;;;20.70;7.05;;;;;;;3.78;85.69;98266.50;1724880;82;21162;-81
2020/12/10 06:10:42;;;;;;;12.85;7.28;;;;;;;3.73;86.04;98279.82;1724941;82;21214;-80
2020/12/10 06:13:11;;;;;;;19.95;8.68;;;;;;;3.55;85.65;98252.16;1725051;82;21169;-82
2020/12/10 06:15:39;;;;;;;19.62;8.13;;;;;;;3.70;85.89;98275.58;1723458;82;21185;-80
2020/12/10 06:18:11;;;;;;;14.85;7.62;;;;;;;3.72;85.88;98289.27;1725782;83;21173;-82
2020/12/10 06:20:42;;;;;;;17.40;7.77;;;;;;;3.70;86.26;98291.00;1727813;82;21922;-82
2020/12/10 06:23:31;;;;;;;14.87;7.25;;;;;;;3.71;86.58;98290.56;1725751;82;21669;-81
2020/12/10 06:26:20;;;;;;;15.50;6.97;;;;;;;3.74;86.08;98291.79;1723822;82;21168;-82
2020/12/10 06:28:47;;;;;;;16.82;7.15;;;;;;;3.77;86.21;98283.62;1725194;82;21177;-81
2020/12/10 06:31:15;;;;;;;24.63;8.83;;;;;;;3.82;86.13;98277.16;1724683;82;22029;-83
2020/12/10 06:33:46;;;;;;;20.45;7.80;;;;;;;3.83;86.26;98272.86;1726114;82;21658;-82
2020/12/10 06:36:22;;;;;;;23.30;9.15;;;;;;;3.87;85.77;98272.80;1712967;82;21195;-81
2020/12/10 06:38:52;;;;;;;17.40;8.28;;;;;;;3.88;85.84;98273.64;1696203;83;21446;-80
2020/12/10 06:41:19;;;;;;;20.20;9.68;;;;;;;3.90;85.95;98273.19;1697767;83;21620;-80
2020/12/10 06:43:47;;;;;;;23.27;10.82;;;;;;;3.92;85.74;98267.19;1678309;84;21709;-80
2020/12/10 06:46:15;;;;;;;22.60;10.10;;;;;;;3.94;85.29;98276.17;1678127;84;21204;-81
2020/12/10 06:48:47;;;;;;;20.88;9.93;;;;;;;3.93;85.70;98283.45;1667634;85;21172;-80
2020/12/10 06:51:21;;;;;;;20.17;9.73;;;;;;;3.91;85.49;98281.34;1679771;85;21188;-81
2020/12/10 06:54:08;;;;;;;20.65;10.13;;;;;;;3.89;85.39;98285.20;1694933;83;21211;-79
2020/12/10 06:57:00;;;;;;;19.55;9.65;;;;;;;3.85;85.36;98289.13;1690327;84;21204;-81
2020/12/10 06:59:42;;;;;;;22.20;10.23;;;;;;;3.86;85.81;98293.38;1873423;74;22924;-77
2020/12/10 07:02:22;;;;;;;20.68;10.82;;;;;;;3.79;85.79;98292.16;1847798;77;21551;-77
2020/12/10 07:04:53;;;;;;;24.25;10.38;;;;;;;3.75;85.82;98304.64;1846132;75;21170;-78
2020/12/10 07:07:24;;;;;;;22.45;11.53;;;;;;;3.75;85.08;98316.20;1845350;77;21142;-81
2020/12/10 07:10:00;;;;;;;26.02;11.90;;;;;;;3.70;86.46;98317.99;1840794;76;21138;-80
2020/12/10 07:12:34;;;;;;;24.10;10.28;;;;;;;3.74;85.78;98314.93;1846843;77;21998;-77
2020/12/10 07:15:26;;;;;;;26.50;11.10;;;;;;;3.81;85.45;98300.31;1801156;78;23375;-78
2020/12/10 07:17:54;;;;;;;25.23;9.65;;;;;;;3.77;85.75;98305.47;1814739;78;21168;-77
2020/12/10 07:20:22;;;;;;;29.02;10.68;;;;;;;3.83;86.05;98301.15;1804408;78;21140;-80
2020/12/10 07:22:50;;;;;;;27.45;11.20;;;;;;;3.89;85.73;98311.36;1809735;78;21463;-78
2020/12/10 07:25:17;;;;;;;31.90;13.43;;;;;;;3.94;85.80;98315.59;1810698;78;21128;-79
2020/12/10 07:27:45;;;;;;;28.62;9.83;;;;;;;3.98;85.73;98312.12;1808817;78;21124;-78
2020/12/10 07:30:15;;;;;;;24.67;9.98;;;;;;;4.07;85.51;98311.59;1811572;78;21141;-78
2020/12/10 07:32:44;;;;;;;25.17;10.68;;;;;;;4.05;85.49;98318.03;1808332;78;21132;-79
2020/12/10 07:35:13;;;;;;;21.05;9.95;;;;;;;4.08;85.52;98328.30;1806207;78;21143;-80
2020/12/10 07:37:41;;;;;;;23.05;9.68;;;;;;;4.16;85.47;98325.20;1807460;78;22200;-80
2020/12/10 07:40:14;;;;;;;21.20;10.35;;;;;;;4.21;85.18;98312.27;1808050;78;21215;-80
2020/12/10 07:42:43;;;;;;;26.57;10.48;;;;;;;4.24;85.07;98306.23;1808251;78;21129;-80
2020/12/10 07:45:18;;;;;;;25.75;11.18;;;;;;;4.30;85.08;98317.77;1813171;78;21139;-80
2020/12/10 07:47:57;;;;;;;29.05;10.95;;;;;;;4.32;84.77;98314.30;1802659;78;21692;-78
2020/12/10 07:50:38;;;;;;;32.58;17.37;;;;;;;4.45;84.65;98305.97;1875918;75;28380;-78
2020/12/10 07:53:08;;;;;;;33.13;13.83;;;;;;;4.48;84.33;98305.09;1798918;79;21118;-81
2020/12/10 07:55:46;;;;;;;49.33;23.05;;;;;;;4.40;84.37;98310.34;1791716;78;21605;-78
2020/12/10 07:58:34;;;;;;;39.03;14.38;;;;;;;4.40;84.50;98302.63;1824197;78;21920;-81
2020/12/10 08:01:04;;;;;;;33.80;14.53;;;;;;;4.39;84.54;98311.20;1791869;80;21147;-80
2020/12/10 08:03:49;;;;;;;29.87;13.22;;;;;;;4.40;84.57;98314.20;1823028;78;21149;-78
2020/12/10 08:06:18;;;;;;;21.55;10.28;;;;;;;4.43;84.40;98306.42;1791055;80;21170;-78
2020/12/10 08:08:50;;;;;;;26.15;11.57;;;;;;;4.45;84.31;98306.41;1821381;78;21328;-79
2020/12/10 08:11:19;;;;;;;27.87;11.75;;;;;;;4.52;84.24;98314.48;1792306;80;21161;-79
2020/12/10 08:14:00;;;;;;;33.08;13.22;;;;;;;4.54;84.39;98321.75;1823749;78;21640;-77
2020/12/10 08:16:42;;;;;;;28.70;11.73;;;;;;;4.65;84.31;98318.56;1791569;80;21279;-80
2020/12/10 08:19:19;;;;;;;24.25;10.40;;;;;;;4.76;83.68;98314.58;1822784;78;21144;-79
2020/12/10 08:21:50;;;;;;;30.95;11.22;;;;;;;4.85;83.30;98328.59;1791355;80;21168;-80
2020/12/10 08:24:44;;;;;;;30.70;12.68;;;;;;;4.94;82.97;98329.75;1823202;78;21606;-80
2020/12/10 08:27:17;;;;;;;29.72;13.00;;;;;;;4.98;82.70;98325.41;1792055;80;21157;-80
2020/12/10 08:30:10;;;;;;;26.30;12.70;;;;;;;5.16;82.85;98323.00;1823047;78;22012;-78
2020/12/10 08:32:56;;;;;;;28.83;12.18;;;;;;;5.23;82.47;98322.00;1824099;78;21152;-80
2020/12/10 08:35:23;;;;;;;27.13;12.05;;;;;;;5.38;82.08;98340.25;1792158;80;22245;-80
2020/12/10 08:37:51;;;;;;;26.65;11.93;;;;;;;5.44;82.59;98349.62;1824048;78;21157;-80
2020/12/10 08:40:27;;;;;;;25.17;11.55;;;;;;;5.49;81.91;98340.06;1790670;79;21312;-81
2020/12/10 08:42:55;;;;;;;29.48;12.53;;;;;;;5.57;82.18;98329.17;1785673;80;21464;-81
2020/12/10 08:45:35;;;;;;;27.32;13.40;;;;;;;5.60;81.54;98330.88;1787695;78;21268;-82
2020/12/10 08:48:04;;;;;;;24.50;12.03;;;;;;;5.69;81.71;98329.41;1816337;78;21288;-82
2020/12/10 08:50:31;;;;;;;23.87;11.22;;;;;;;5.73;81.49;98315.58;1778012;79;21877;-82
2020/12/10 08:53:08;;;;;;;24.52;10.40;;;;;;;5.76;80.38;98318.95;1787628;79;21082;-82
2020/12/10 08:55:44;;;;;;;23.32;11.33;;;;;;;5.83;81.07;98318.42;1790429;79;21851;-83
2020/12/10 08:58:21;;;;;;;28.95;11.10;;;;;;;5.81;80.90;98313.73;1789228;79;21255;-82
2020/12/10 09:00:52;;;;;;;27.70;11.95;;;;;;;5.82;81.03;98311.55;1787409;78;21462;-85
2020/12/10 09:03:21;;;;;;;57.98;21.55;;;;;;;5.81;80.98;98306.41;1798426;79;21287;-82
2020/12/10 09:05:50;;;;;;;29.42;13.00;;;;;;;5.78;80.99;98303.45;1809213;79;21242;-81
2020/12/10 09:08:18;;;;;;;88.10;38.17;;;;;;;5.81;80.89;98308.99;1795807;79;21806;-83
2020/12/10 09:10:47;;;;;;;61.37;27.45;;;;;;;5.83;81.42;98305.53;1804372;79;21307;-82
2020/12/10 09:13:14;;;;;;;52.40;24.67;;;;;;;5.88;81.53;98298.98;1806695;79;21284;-83
2020/12/10 09:15:44;;;;;;;27.48;12.13;;;;;;;5.97;82.07;98294.53;1801020;79;21282;-81
2020/12/10 09:18:12;;;;;;;22.73;9.93;;;;;;;6.06;81.38;98292.65;1807608;79;21327;-81
2020/12/10 09:20:41;;;;;;;24.15;11.10;;;;;;;6.14;81.90;98299.80;1786468;79;21279;-81
2020/12/10 09:23:10;;;;;;;22.87;9.13;;;;;;;6.15;81.74;98284.28;1781532;80;21771;-82
2020/12/10 09:25:39;;;;;;;25.90;11.08;;;;;;;6.21;81.52;98285.02;1802464;78;21256;-82
2020/12/10 09:28:08;;;;;;;25.10;11.28;;;;;;;6.33;81.42;98292.54;1784375;78;21304;-81
2020/12/10 09:30:38;;;;;;;29.37;12.50;;;;;;;6.44;81.46;98301.34;1821508;78;21284;-82
2020/12/10 09:33:07;;;;;;;26.27;12.82;;;;;;;6.50;80.35;98296.88;1792666;80;21255;-81
2020/12/10 09:35:35;;;;;;;25.88;11.60;;;;;;;6.60;80.42;98295.41;1789275;80;21307;-82
2020/12/10 09:38:05;;;;;;;25.37;11.65;;;;;;;6.73;80.61;98290.39;1807583;78;21415;-83
2020/12/10 09:40:33;;;;;;;28.05;11.45;;;;;;;6.82;79.50;98297.91;1819131;78;21284;-81
2020/12/10 09:43:01;;;;;;;22.37;10.95;;;;;;;6.93;80.17;98294.64;1811706;78;21271;-82
2020/12/10 09:45:29;;;;;;;24.30;11.18;;;;;;;7.03;79.91;98295.28;1816252;78;21304;-81
2020/12/10 09:47:58;;;;;;;22.62;12.18;;;;;;;7.07;79.99;98293.48;1790881;79;21314;-81
2020/12/10 09:50:29;;;;;;;29.52;14.10;;;;;;;7.12;77.99;98289.91;1801712;79;21173;-84
2020/12/10 09:53:01;;;;;;;30.92;13.50;;;;;;;7.22;79.24;98277.61;1801716;79;21279;-81
2020/12/10 09:58:08;;;;;;;25.35;10.75;;;;;;;7.45;78.26;98289.11;1793118;80;21260;-82
2020/12/10 10:00:35;;;;;;;22.98;11.20;;;;;;;7.52;78.22;98287.63;1823770;78;21298;-83
2020/12/10 10:03:06;;;;;;;26.85;13.03;;;;;;;7.59;78.59;98283.58;1817550;78;21314;-81
2020/12/10 10:05:36;;;;;;;33.78;14.63;;;;;;;7.58;77.46;98284.03;1822599;78;21276;-82
2020/12/10 10:08:03;;;;;;;32.98;16.20;;;;;;;7.67;77.59;98279.05;1797388;79;21267;-79
2020/12/10 10:10:31;;;;;;;33.28;16.95;;;;;;;7.76;77.54;98278.36;1795894;79;21584;-81
2020/12/10 10:12:58;;;;;;;46.15;25.37;;;;;;;7.87;77.75;98262.98;1808492;77;21229;-82
2020/12/10 10:15:26;;;;;;;36.35;18.70;;;;;;;7.95;76.29;98261.03;1788075;78;21225;-83
2020/12/10 10:17:53;;;;;;;35.43;17.45;;;;;;;8.11;77.65;98263.59;1828802;78;21272;-82
2020/12/10 10:20:21;;;;;;;27.75;14.38;;;;;;;8.27;77.01;98264.45;1793815;79;22169;-83
2020/12/10 10:22:49;;;;;;;29.67;11.35;;;;;;;8.41;75.27;98256.28;1759337;80;21276;-82
2020/12/10 10:25:16;;;;;;;28.30;10.65;;;;;;;8.53;77.15;98255.52;1786857;78;21317;-83
2020/12/10 10:27:45;;;;;;;25.02;12.15;;;;;;;8.55;75.51;98254.14;1791726;79;21264;-81
2020/12/10 10:30:13;;;;;;;29.72;12.00;;;;;;;8.62;76.67;98263.44;1779046;80;22284;-83
2020/12/10 10:32:40;;;;;;;26.15;12.45;;;;;;;8.77;74.17;98262.11;1825015;78;21300;-82
2020/12/10 10:35:08;;;;;;;23.02;10.98;;;;;;;8.90;74.98;98256.95;1827104;78;21259;-81
2020/12/10 10:37:35;;;;;;;48.60;20.95;;;;;;;8.90;75.62;98237.50;1799793;78;21295;-81
2020/12/10 10:40:03;;;;;;;33.05;16.97;;;;;;;9.20;75.07;98242.59;1793280;78;21912;-81
2020/12/10 10:42:33;;;;;;;34.53;18.62;;;;;;;9.36;75.21;98252.84;1815925;78;21300;-81
2020/12/10 10:45:01;;;;;;;39.90;20.05;;;;;;;9.53;74.53;98249.69;1792443;78;21303;-80
2020/12/10 10:47:29;;;;;;;24.52;14.30;;;;;;;9.70;74.39;98241.30;1825755;78;21307;-80
2020/12/10 10:49:57;;;;;;;45.20;22.62;;;;;;;9.76;71.87;98237.20;1795050;79;21318;-80
2020/12/10 10:52:25;;;;;;;31.60;16.05;;;;;;;9.89;72.76;98236.32;1792535;78;21271;-79
2020/12/10 10:54:53;;;;;;;30.45;15.70;;;;;;;9.96;72.29;98227.84;1788608;80;21288;-80
2020/12/10 10:57:20;;;;;;;46.95;24.60;;;;;;;10.10;71.51;98220.85;1799918;79;21401;-79
2020/12/10 10:59:47;;;;;;;31.50;15.00;;;;;;;10.23;72.27;98209.11;1806389;78;22527;-79
2020/12/10 11:02:15;;;;;;;24.37;12.43;;;;;;;10.38;71.98;98209.45;1802211;78;21308;-82
2020/12/10 11:04:43;;;;;;;36.55;19.60;;;;;;;10.47;68.15;98200.85;1794952;79;21315;-80
2020/12/10 11:07:11;;;;;;;29.48;13.58;;;;;;;10.51;69.75;98195.92;1793495;79;21310;-79
2020/12/10 11:09:39;;;;;;;37.80;19.75;;;;;;;10.60;70.73;98186.07;1826777;78;21156;-81
2020/12/10 11:12:07;;;;;;;29.77;13.58;;;;;;;10.71;70.34;98183.91;1795813;78;21275;-79
2020/12/10 11:14:34;;;;;;;20.10;10.43;;;;;;;10.81;69.74;98193.02;1822517;78;21327;-81
2020/12/10 11:17:02;;;;;;;18.92;9.40;;;;;;;10.84;67.08;98196.80;1825707;78;21279;-81
2020/12/10 11:19:29;;;;;;;17.55;7.62;;;;;;;10.86;68.18;98204.52;1825934;78;21306;-81
2020/12/10 11:21:57;;;;;;;14.30;5.92;;;;;;;10.98;69.02;98197.98;1828064;78;21271;-82
2020/12/10 11:24:24;;;;;;;13.18;5.92;;;;;;;10.80;64.82;98187.87;1786516;80;21153;-81
2020/12/10 11:26:52;;;;;;;8.70;5.15;;;;;;;10.80;68.18;98193.07;1825500;78;21156;-85
2020/12/10 11:29:20;;;;;;;18.45;7.45;;;;;;;10.74;67.38;98191.12;1797716;79;21187;-89
2020/12/10 11:31:48;;;;;;;22.00;7.30;;;;;;;10.77;66.83;98194.52;1791080;78;21475;-88
2020/12/10 11:34:16;;;;;;;18.62;7.58;;;;;;;10.84;68.13;98200.70;1825269;78;21296;-83
2020/12/10 11:36:46;;;;;;;17.67;7.22;;;;;;;10.93;67.98;98200.31;1826804;78;21155;-85
2020/12/10 11:39:13;;;;;;;16.27;7.15;;;;;;;10.91;68.05;98198.23;1794064;79;21339;-82
2020/12/10 11:41:41;;;;;;;19.23;8.53;;;;;;;10.91;66.39;98193.49;1799425;78;22618;-80
2020/12/10 11:44:10;;;;;;;18.60;8.58;;;;;;;11.06;68.66;98199.80;1817421;78;21731;-83